sensor_id;sensor_type;location;lat;lon;timestamp;P1;durP1;ratioP1;P2;durP2;ratioP2
75990;SDS011;64673;52.276;10.560;2022-12-18T00:01:37;26.92;;;11.10;;
75990;SDS011;64673;52.276;10.560;2022-12-18T00:04:04;25.63;;;11.60;;
75990;SDS011;64673;52.276;10.560;2022-12-18T00:06:31;22.10;;;9.93;;
75990;SDS011;64673;52.276;10.560;2022-12-18T00:09:00;29.40;;;10.77;;
75990;SDS011;64673;52.276;10.560;2022-12-18T00:11:27;23.00;;;9.98;;
75990;SDS011;64673;52.276;10.560;2022-12-18T00:13:54;24.90;;;10.32;;
75990;SDS011;64673;52.276;10.560;2022-12-18T00:16:22;21.50;;;9.73;;
75990;SDS011;64673;52.276;10.560;2022-12-18T00:18:50;22.25;;;10.10;;
75990;SDS011;64673;52.276;10.560;2022-12-18T00:21:17;23.45;;;9.77;;
75990;SDS011;64673;52.276;10.560;2022-12-18T00:23:43;22.23;;;9.90;;
75990;SDS011;64673;52.276;10.560;2022-12-18T00:26:11;25.15;;;10.68;;
75990;SDS011;64673;52.276;10.560;2022-12-18T00:29:00;20.05;;;9.00;;
75990;SDS011;64673;52.276;10.560;2022-12-18T00:31:27;24.30;;;10.00;;
75990;SDS011;64673;52.276;10.560;2022-12-18T00:33:55;22.85;;;9.70;;
75990;SDS011;64673;52.276;10.560;2022-12-18T00:36:32;22.85;;;10.40;;
75990;SDS011;64673;52.276;10.560;2022-12-18T00:38:59;21.58;;;9.52;;
75990;SDS011;64673;52.276;10.560;2022-12-18T00:41:26;23.55;;;9.52;;
75990;SDS011;64673;52.276;10.560;2022-12-18T00:44:11;22.33;;;9.23;;
75990;SDS011;64673;52.276;10.560;2022-12-18T00:46:39;23.30;;;10.50;;
75990;SDS011;64673;52.276;10.560;2022-12-18T00:49:05;22.98;;;9.60;;
75990;SDS011;64673;52.276;10.560;2022-12-18T00:51:30;24.77;;;9.98;;
75990;SDS011;64673;52.276;10.560;2022-12-18T00:53:56;23.92;;;10.85;;
75990;SDS011;64673;52.276;10.560;2022-12-18T00:56:21;24.38;;;10.30;;
75990;SDS011;64673;52.276;10.560;2022-12-18T00:58:47;20.52;;;9.27;;
75990;SDS011;64673;52.276;10.560;2022-12-18T01:01:13;23.63;;;9.35;;
75990;SDS011;64673;52.276;10.560;2022-12-18T01:03:39;19.60;;;8.55;;
75990;SDS011;64673;52.276;10.560;2022-12-18T01:06:05;21.05;;;9.30;;
75990;SDS011;64673;52.276;10.560;2022-12-18T01:08:34;22.48;;;10.35;;
75990;SDS011;64673;52.276;10.560;2022-12-18T01:11:01;21.88;;;9.52;;
75990;SDS011;64673;52.276;10.560;2022-12-18T01:13:31;19.73;;;9.18;;
75990;SDS011;64673;52.276;10.560;2022-12-18T01:15:57;27.40;;;10.95;;
75990;SDS011;64673;52.276;10.560;2022-12-18T01:18:22;25.45;;;9.73;;
75990;SDS011;64673;52.276;10.560;2022-12-18T01:20:47;24.20;;;9.88;;
75990;SDS011;64673;52.276;10.560;2022-12-18T01:23:13;19.43;;;9.10;;
75990;SDS011;64673;52.276;10.560;2022-12-18T01:25:38;22.95;;;10.63;;
75990;SDS011;64673;52.276;10.560;2022-12-18T01:28:03;23.52;;;9.57;;
75990;SDS011;64673;52.276;10.560;2022-12-18T01:30:29;21.75;;;9.38;;
75990;SDS011;64673;52.276;10.560;2022-12-18T01:32:54;22.77;;;11.27;;
75990;SDS011;64673;52.276;10.560;2022-12-18T01:35:19;21.45;;;9.77;;
75990;SDS011;64673;52.276;10.560;2022-12-18T01:37:45;24.20;;;9.30;;
75990;SDS011;64673;52.276;10.560;2022-12-18T01:40:10;17.95;;;8.27;;
75990;SDS011;64673;52.276;10.560;2022-12-18T01:42:35;23.45;;;9.55;;
75990;SDS011;64673;52.276;10.560;2022-12-18T01:47:42;22.10;;;9.43;;
75990;SDS011;64673;52.276;10.560;2022-12-18T01:50:19;18.67;;;9.10;;
75990;SDS011;64673;52.276;10.560;2022-12-18T01:52:52;20.42;;;9.05;;
75990;SDS011;64673;52.276;10.560;2022-12-18T01:55:22;26.52;;;10.38;;
75990;SDS011;64673;52.276;10.560;2022-12-18T01:57:51;23.20;;;9.43;;
75990;SDS011;64673;52.276;10.560;2022-12-18T02:00:20;21.50;;;9.38;;
75990;SDS011;64673;52.276;10.560;2022-12-18T02:02:47;26.98;;;8.93;;
75990;SDS011;64673;52.276;10.560;2022-12-18T02:05:15;24.27;;;10.85;;
75990;SDS011;64673;52.276;10.560;2022-12-18T02:13:20;25.05;;;8.55;;
75990;SDS011;64673;52.276;10.560;2022-12-18T02:18:24;27.52;;;11.80;;
75990;SDS011;64673;52.276;10.560;2022-12-18T02:20:57;21.40;;;9.43;;
75990;SDS011;64673;52.276;10.560;2022-12-18T02:23:56;26.65;;;10.90;;
75990;SDS011;64673;52.276;10.560;2022-12-18T02:26:37;19.45;;;8.77;;
75990;SDS011;64673;52.276;10.560;2022-12-18T02:29:12;17.08;;;8.77;;
75990;SDS011;64673;52.276;10.560;2022-12-18T02:31:43;19.58;;;8.45;;
75990;SDS011;64673;52.276;10.560;2022-12-18T02:34:14;22.88;;;9.40;;
75990;SDS011;64673;52.276;10.560;2022-12-18T02:36:42;20.63;;;8.80;;
75990;SDS011;64673;52.276;10.560;2022-12-18T02:39:10;26.27;;;9.85;;
75990;SDS011;64673;52.276;10.560;2022-12-18T02:41:38;27.23;;;11.35;;
75990;SDS011;64673;52.276;10.560;2022-12-18T02:44:07;20.05;;;9.05;;
75990;SDS011;64673;52.276;10.560;2022-12-18T02:46:48;22.13;;;8.68;;
75990;SDS011;64673;52.276;10.560;2022-12-18T02:54:17;20.80;;;9.97;;
75990;SDS011;64673;52.276;10.560;2022-12-18T02:56:46;20.48;;;8.15;;
75990;SDS011;64673;52.276;10.560;2022-12-18T02:59:21;18.45;;;9.00;;
75990;SDS011;64673;52.276;10.560;2022-12-18T03:02:18;23.45;;;8.70;;
75990;SDS011;64673;52.276;10.560;2022-12-18T03:04:43;20.90;;;9.32;;
75990;SDS011;64673;52.276;10.560;2022-12-18T03:07:18;19.55;;;9.50;;
75990;SDS011;64673;52.276;10.560;2022-12-18T03:09:50;16.17;;;6.88;;
75990;SDS011;64673;52.276;10.560;2022-12-18T03:12:21;23.52;;;8.50;;
75990;SDS011;64673;52.276;10.560;2022-12-18T03:15:09;19.23;;;8.18;;
75990;SDS011;64673;52.276;10.560;2022-12-18T03:17:35;22.08;;;9.25;;
75990;SDS011;64673;52.276;10.560;2022-12-18T03:20:10;20.42;;;8.75;;
75990;SDS011;64673;52.276;10.560;2022-12-18T03:22:39;19.15;;;8.63;;
75990;SDS011;64673;52.276;10.560;2022-12-18T03:25:09;18.88;;;7.95;;
75990;SDS011;64673;52.276;10.560;2022-12-18T03:27:38;18.00;;;7.80;;
75990;SDS011;64673;52.276;10.560;2022-12-18T03:30:12;26.02;;;10.20;;
75990;SDS011;64673;52.276;10.560;2022-12-18T03:32:49;24.40;;;9.85;;
75990;SDS011;64673;52.276;10.560;2022-12-18T03:35:24;21.10;;;10.13;;
75990;SDS011;64673;52.276;10.560;2022-12-18T03:37:53;20.23;;;8.25;;
75990;SDS011;64673;52.276;10.560;2022-12-18T03:40:20;15.05;;;7.47;;
75990;SDS011;64673;52.276;10.560;2022-12-18T03:43:08;21.30;;;9.95;;
75990;SDS011;64673;52.276;10.560;2022-12-18T03:45:37;21.30;;;8.43;;
75990;SDS011;64673;52.276;10.560;2022-12-18T03:51:18;20.13;;;7.95;;
75990;SDS011;64673;52.276;10.560;2022-12-18T03:53:55;19.42;;;7.35;;
75990;SDS011;64673;52.276;10.560;2022-12-18T03:56:25;20.55;;;8.90;;
75990;SDS011;64673;52.276;10.560;2022-12-18T03:58:54;18.15;;;7.25;;
75990;SDS011;64673;52.276;10.560;2022-12-18T04:01:23;19.23;;;7.47;;
75990;SDS011;64673;52.276;10.560;2022-12-18T04:03:54;19.65;;;7.80;;
75990;SDS011;64673;52.276;10.560;2022-12-18T04:06:21;21.60;;;8.48;;
75990;SDS011;64673;52.276;10.560;2022-12-18T04:08:48;20.50;;;9.10;;
75990;SDS011;64673;52.276;10.560;2022-12-18T04:11:14;22.85;;;8.55;;
75990;SDS011;64673;52.276;10.560;2022-12-18T04:13:41;23.13;;;8.77;;
75990;SDS011;64673;52.276;10.560;2022-12-18T04:16:07;19.27;;;8.40;;
75990;SDS011;64673;52.276;10.560;2022-12-18T04:18:34;16.15;;;7.50;;
75990;SDS011;64673;52.276;10.560;2022-12-18T04:21:00;20.83;;;8.48;;
75990;SDS011;64673;52.276;10.560;2022-12-18T04:23:26;20.52;;;8.68;;
75990;SDS011;64673;52.276;10.560;2022-12-18T04:25:51;20.73;;;8.82;;
75990;SDS011;64673;52.276;10.560;2022-12-18T04:28:17;16.63;;;8.35;;
75990;SDS011;64673;52.276;10.560;2022-12-18T04:30:42;20.27;;;8.60;;
75990;SDS011;64673;52.276;10.560;2022-12-18T04:33:09;18.80;;;8.43;;
75990;SDS011;64673;52.276;10.560;2022-12-18T04:35:35;19.00;;;7.78;;
75990;SDS011;64673;52.276;10.560;2022-12-18T04:38:01;18.02;;;8.25;;
75990;SDS011;64673;52.276;10.560;2022-12-18T04:40:26;17.95;;;8.15;;
75990;SDS011;64673;52.276;10.560;2022-12-18T04:42:51;23.77;;;8.70;;
75990;SDS011;64673;52.276;10.560;2022-12-18T04:45:17;17.50;;;9.00;;
75990;SDS011;64673;52.276;10.560;2022-12-18T04:47:42;23.30;;;8.90;;
75990;SDS011;64673;52.276;10.560;2022-12-18T04:50:07;17.43;;;8.43;;
75990;SDS011;64673;52.276;10.560;2022-12-18T04:52:33;23.63;;;8.88;;
75990;SDS011;64673;52.276;10.560;2022-12-18T04:54:58;21.00;;;8.45;;
75990;SDS011;64673;52.276;10.560;2022-12-18T04:57:23;21.98;;;9.07;;
75990;SDS011;64673;52.276;10.560;2022-12-18T04:59:49;21.50;;;8.00;;
75990;SDS011;64673;52.276;10.560;2022-12-18T05:02:14;21.50;;;8.75;;
75990;SDS011;64673;52.276;10.560;2022-12-18T05:04:39;19.73;;;8.60;;
75990;SDS011;64673;52.276;10.560;2022-12-18T05:07:05;25.15;;;8.35;;
75990;SDS011;64673;52.276;10.560;2022-12-18T05:09:30;18.73;;;8.38;;
75990;SDS011;64673;52.276;10.560;2022-12-18T05:11:55;24.90;;;10.05;;
75990;SDS011;64673;52.276;10.560;2022-12-18T05:14:21;18.98;;;7.82;;
75990;SDS011;64673;52.276;10.560;2022-12-18T05:16:46;22.85;;;9.60;;
75990;SDS011;64673;52.276;10.560;2022-12-18T05:19:11;21.10;;;9.83;;
75990;SDS011;64673;52.276;10.560;2022-12-18T05:21:37;22.30;;;9.55;;
75990;SDS011;64673;52.276;10.560;2022-12-18T05:24:02;25.65;;;10.25;;
75990;SDS011;64673;52.276;10.560;2022-12-18T05:26:28;21.45;;;9.35;;
75990;SDS011;64673;52.276;10.560;2022-12-18T05:28:53;25.27;;;9.18;;
75990;SDS011;64673;52.276;10.560;2022-12-18T05:31:21;20.75;;;8.98;;
75990;SDS011;64673;52.276;10.560;2022-12-18T05:33:47;19.15;;;8.73;;
75990;SDS011;64673;52.276;10.560;2022-12-18T05:36:15;25.60;;;9.20;;
75990;SDS011;64673;52.276;10.560;2022-12-18T05:38:40;19.08;;;8.23;;
75990;SDS011;64673;52.276;10.560;2022-12-18T05:41:06;25.02;;;9.65;;
75990;SDS011;64673;52.276;10.560;2022-12-18T05:43:33;19.25;;;7.85;;
75990;SDS011;64673;52.276;10.560;2022-12-18T05:46:03;22.83;;;8.43;;
75990;SDS011;64673;52.276;10.560;2022-12-18T05:48:33;25.38;;;10.02;;
75990;SDS011;64673;52.276;10.560;2022-12-18T05:51:03;21.95;;;9.07;;
75990;SDS011;64673;52.276;10.560;2022-12-18T05:53:30;23.33;;;8.32;;
75990;SDS011;64673;52.276;10.560;2022-12-18T05:55:59;24.80;;;9.43;;
75990;SDS011;64673;52.276;10.560;2022-12-18T05:58:25;21.92;;;8.93;;
75990;SDS011;64673;52.276;10.560;2022-12-18T06:00:50;22.30;;;9.15;;
75990;SDS011;64673;52.276;10.560;2022-12-18T06:03:15;23.27;;;9.18;;
75990;SDS011;64673;52.276;10.560;2022-12-18T06:05:42;22.75;;;9.77;;
75990;SDS011;64673;52.276;10.560;2022-12-18T06:08:08;22.75;;;9.35;;
75990;SDS011;64673;52.276;10.560;2022-12-18T06:10:34;19.55;;;8.63;;
75990;SDS011;64673;52.276;10.560;2022-12-18T06:13:00;19.92;;;9.43;;
75990;SDS011;64673;52.276;10.560;2022-12-18T06:15:26;17.25;;;7.22;;
75990;SDS011;64673;52.276;10.560;2022-12-18T06:17:51;16.35;;;7.88;;
75990;SDS011;64673;52.276;10.560;2022-12-18T06:20:16;25.23;;;8.88;;
75990;SDS011;64673;52.276;10.560;2022-12-18T06:22:42;19.17;;;7.25;;
75990;SDS011;64673;52.276;10.560;2022-12-18T06:25:07;19.08;;;8.15;;
75990;SDS011;64673;52.276;10.560;2022-12-18T06:27:35;19.23;;;7.35;;
75990;SDS011;64673;52.276;10.560;2022-12-18T06:30:00;18.85;;;7.90;;
75990;SDS011;64673;52.276;10.560;2022-12-18T06:32:25;21.35;;;8.02;;
75990;SDS011;64673;52.276;10.560;2022-12-18T06:34:51;16.90;;;8.25;;
75990;SDS011;64673;52.276;10.560;2022-12-18T06:37:16;16.50;;;6.80;;
75990;SDS011;64673;52.276;10.560;2022-12-18T06:39:42;22.42;;;8.50;;
75990;SDS011;64673;52.276;10.560;2022-12-18T06:42:07;20.27;;;7.95;;
75990;SDS011;64673;52.276;10.560;2022-12-18T06:44:33;19.08;;;8.80;;
75990;SDS011;64673;52.276;10.560;2022-12-18T06:46:58;23.05;;;8.85;;
75990;SDS011;64673;52.276;10.560;2022-12-18T06:49:23;19.63;;;8.82;;
75990;SDS011;64673;52.276;10.560;2022-12-18T06:51:49;19.30;;;7.85;;
75990;SDS011;64673;52.276;10.560;2022-12-18T06:54:14;23.27;;;8.73;;
75990;SDS011;64673;52.276;10.560;2022-12-18T06:56:39;21.92;;;8.38;;
75990;SDS011;64673;52.276;10.560;2022-12-18T06:59:05;18.20;;;7.50;;
75990;SDS011;64673;52.276;10.560;2022-12-18T07:01:30;15.23;;;6.35;;
75990;SDS011;64673;52.276;10.560;2022-12-18T07:03:56;21.42;;;9.15;;
75990;SDS011;64673;52.276;10.560;2022-12-18T07:06:22;18.55;;;7.30;;
75990;SDS011;64673;52.276;10.560;2022-12-18T07:08:49;22.90;;;8.30;;
75990;SDS011;64673;52.276;10.560;2022-12-18T07:11:16;17.17;;;7.63;;
75990;SDS011;64673;52.276;10.560;2022-12-18T07:13:42;18.33;;;8.15;;
75990;SDS011;64673;52.276;10.560;2022-12-18T07:16:08;28.75;;;9.65;;
75990;SDS011;64673;52.276;10.560;2022-12-18T07:18:36;24.52;;;9.45;;
75990;SDS011;64673;52.276;10.560;2022-12-18T07:21:09;23.70;;;8.52;;
75990;SDS011;64673;52.276;10.560;2022-12-18T07:23:36;26.15;;;9.23;;
75990;SDS011;64673;52.276;10.560;2022-12-18T07:26:05;20.90;;;9.13;;
75990;SDS011;64673;52.276;10.560;2022-12-18T07:28:34;22.15;;;7.97;;
75990;SDS011;64673;52.276;10.560;2022-12-18T07:31:03;20.50;;;7.78;;
75990;SDS011;64673;52.276;10.560;2022-12-18T07:33:33;24.58;;;9.95;;
75990;SDS011;64673;52.276;10.560;2022-12-18T07:35:59;21.08;;;9.50;;
75990;SDS011;64673;52.276;10.560;2022-12-18T07:38:25;20.38;;;8.27;;
75990;SDS011;64673;52.276;10.560;2022-12-18T07:40:51;18.20;;;7.53;;
75990;SDS011;64673;52.276;10.560;2022-12-18T07:43:16;29.27;;;9.77;;
75990;SDS011;64673;52.276;10.560;2022-12-18T07:45:42;24.77;;;9.70;;
75990;SDS011;64673;52.276;10.560;2022-12-18T07:48:08;24.17;;;8.68;;
75990;SDS011;64673;52.276;10.560;2022-12-18T07:50:33;21.23;;;8.27;;
75990;SDS011;64673;52.276;10.560;2022-12-18T07:52:59;19.70;;;8.30;;
75990;SDS011;64673;52.276;10.560;2022-12-18T07:55:28;26.17;;;10.18;;
75990;SDS011;64673;52.276;10.560;2022-12-18T07:57:54;22.02;;;9.45;;
75990;SDS011;64673;52.276;10.560;2022-12-18T08:00:19;23.13;;;9.17;;
75990;SDS011;64673;52.276;10.560;2022-12-18T08:02:45;28.80;;;9.63;;
75990;SDS011;64673;52.276;10.560;2022-12-18T08:05:10;22.00;;;9.43;;
75990;SDS011;64673;52.276;10.560;2022-12-18T08:07:35;19.67;;;9.05;;
75990;SDS011;64673;52.276;10.560;2022-12-18T08:10:00;24.77;;;8.35;;
75990;SDS011;64673;52.276;10.560;2022-12-18T08:12:26;28.57;;;10.23;;
75990;SDS011;64673;52.276;10.560;2022-12-18T08:14:51;28.43;;;10.03;;
75990;SDS011;64673;52.276;10.560;2022-12-18T08:17:16;22.73;;;8.65;;
75990;SDS011;64673;52.276;10.560;2022-12-18T08:19:42;20.45;;;8.65;;
75990;SDS011;64673;52.276;10.560;2022-12-18T08:22:07;19.93;;;7.27;;
75990;SDS011;64673;52.276;10.560;2022-12-18T08:24:32;20.95;;;8.88;;
75990;SDS011;64673;52.276;10.560;2022-12-18T08:26:57;21.35;;;8.27;;
75990;SDS011;64673;52.276;10.560;2022-12-18T08:29:23;23.03;;;8.13;;
75990;SDS011;64673;52.276;10.560;2022-12-18T08:31:48;30.45;;;9.45;;
75990;SDS011;64673;52.276;10.560;2022-12-18T08:34:14;22.77;;;8.00;;
75990;SDS011;64673;52.276;10.560;2022-12-18T08:36:39;22.52;;;9.02;;
75990;SDS011;64673;52.276;10.560;2022-12-18T08:39:05;23.13;;;9.13;;
75990;SDS011;64673;52.276;10.560;2022-12-18T08:41:30;24.08;;;9.27;;
75990;SDS011;64673;52.276;10.560;2022-12-18T08:43:55;22.23;;;8.13;;
75990;SDS011;64673;52.276;10.560;2022-12-18T08:46:41;19.83;;;7.97;;
75990;SDS011;64673;52.276;10.560;2022-12-18T08:49:08;22.42;;;10.65;;
75990;SDS011;64673;52.276;10.560;2022-12-18T08:51:35;25.23;;;9.73;;
75990;SDS011;64673;52.276;10.560;2022-12-18T08:54:01;25.13;;;8.57;;
75990;SDS011;64673;52.276;10.560;2022-12-18T08:56:27;23.98;;;8.63;;
75990;SDS011;64673;52.276;10.560;2022-12-18T08:58:53;28.17;;;9.63;;
75990;SDS011;64673;52.276;10.560;2022-12-18T09:01:19;25.23;;;9.52;;
75990;SDS011;64673;52.276;10.560;2022-12-18T09:03:45;25.35;;;9.32;;
75990;SDS011;64673;52.276;10.560;2022-12-18T09:06:16;25.23;;;9.18;;
75990;SDS011;64673;52.276;10.560;2022-12-18T09:08:43;22.77;;;8.38;;
75990;SDS011;64673;52.276;10.560;2022-12-18T09:11:18;23.95;;;9.60;;
75990;SDS011;64673;52.276;10.560;2022-12-18T09:13:48;22.58;;;8.93;;
75990;SDS011;64673;52.276;10.560;2022-12-18T09:16:15;25.05;;;9.18;;
75990;SDS011;64673;52.276;10.560;2022-12-18T09:18:40;26.10;;;9.02;;
75990;SDS011;64673;52.276;10.560;2022-12-18T09:21:09;20.47;;;8.47;;
75990;SDS011;64673;52.276;10.560;2022-12-18T09:23:37;24.45;;;9.13;;
75990;SDS011;64673;52.276;10.560;2022-12-18T09:26:02;22.10;;;8.80;;
75990;SDS011;64673;52.276;10.560;2022-12-18T09:28:27;22.48;;;9.85;;
75990;SDS011;64673;52.276;10.560;2022-12-18T09:30:53;24.75;;;9.38;;
75990;SDS011;64673;52.276;10.560;2022-12-18T09:33:18;27.67;;;9.05;;
75990;SDS011;64673;52.276;10.560;2022-12-18T09:35:44;27.85;;;9.45;;
75990;SDS011;64673;52.276;10.560;2022-12-18T09:38:12;26.30;;;10.75;;
75990;SDS011;64673;52.276;10.560;2022-12-18T09:40:41;22.55;;;9.00;;
75990;SDS011;64673;52.276;10.560;2022-12-18T09:43:17;20.42;;;9.07;;
75990;SDS011;64673;52.276;10.560;2022-12-18T09:45:56;22.42;;;8.85;;
75990;SDS011;64673;52.276;10.560;2022-12-18T09:48:36;22.38;;;7.13;;
75990;SDS011;64673;52.276;10.560;2022-12-18T09:51:15;20.70;;;8.50;;
75990;SDS011;64673;52.276;10.560;2022-12-18T09:53:46;19.55;;;8.10;;
75990;SDS011;64673;52.276;10.560;2022-12-18T09:56:16;23.67;;;9.75;;
75990;SDS011;64673;52.276;10.560;2022-12-18T09:59:03;19.65;;;8.10;;
75990;SDS011;64673;52.276;10.560;2022-12-18T10:01:29;28.52;;;9.20;;
75990;SDS011;64673;52.276;10.560;2022-12-18T10:03:56;22.52;;;8.52;;
75990;SDS011;64673;52.276;10.560;2022-12-18T10:06:24;24.42;;;8.93;;
75990;SDS011;64673;52.276;10.560;2022-12-18T10:25:34;20.92;;;8.30;;
75990;SDS011;64673;52.276;10.560;2022-12-18T10:28:10;22.00;;;9.15;;
75990;SDS011;64673;52.276;10.560;2022-12-18T10:30:38;20.63;;;8.32;;
75990;SDS011;64673;52.276;10.560;2022-12-18T10:33:04;21.88;;;8.00;;
75990;SDS011;64673;52.276;10.560;2022-12-18T10:35:29;25.20;;;9.27;;
75990;SDS011;64673;52.276;10.560;2022-12-18T10:43:03;17.50;;;7.22;;
75990;SDS011;64673;52.276;10.560;2022-12-18T10:45:30;17.42;;;6.78;;
75990;SDS011;64673;52.276;10.560;2022-12-18T10:47:56;17.98;;;9.25;;
75990;SDS011;64673;52.276;10.560;2022-12-18T10:50:34;22.15;;;9.25;;
75990;SDS011;64673;52.276;10.560;2022-12-18T10:53:03;21.10;;;7.68;;
75990;SDS011;64673;52.276;10.560;2022-12-18T10:55:37;27.50;;;10.60;;
75990;SDS011;64673;52.276;10.560;2022-12-18T10:58:13;20.40;;;8.27;;
75990;SDS011;64673;52.276;10.560;2022-12-18T11:00:42;18.60;;;8.52;;
75990;SDS011;64673;52.276;10.560;2022-12-18T11:08:43;22.10;;;9.07;;
75990;SDS011;64673;52.276;10.560;2022-12-18T11:11:22;21.52;;;7.93;;
75990;SDS011;64673;52.276;10.560;2022-12-18T11:13:51;21.73;;;9.10;;
75990;SDS011;64673;52.276;10.560;2022-12-18T11:16:26;25.65;;;9.48;;
75990;SDS011;64673;52.276;10.560;2022-12-18T11:18:53;21.02;;;8.38;;
75990;SDS011;64673;52.276;10.560;2022-12-18T11:21:19;24.40;;;8.65;;
75990;SDS011;64673;52.276;10.560;2022-12-18T11:23:46;19.98;;;8.02;;
75990;SDS011;64673;52.276;10.560;2022-12-18T11:26:15;23.02;;;8.55;;
75990;SDS011;64673;52.276;10.560;2022-12-18T11:28:42;21.20;;;8.13;;
75990;SDS011;64673;52.276;10.560;2022-12-18T11:33:40;23.92;;;9.40;;
75990;SDS011;64673;52.276;10.560;2022-12-18T11:36:09;22.80;;;10.02;;
75990;SDS011;64673;52.276;10.560;2022-12-18T11:38:37;21.95;;;9.70;;
75990;SDS011;64673;52.276;10.560;2022-12-18T11:44:10;20.38;;;8.43;;
75990;SDS011;64673;52.276;10.560;2022-12-18T11:49:37;21.65;;;9.13;;
75990;SDS011;64673;52.276;10.560;2022-12-18T11:52:16;21.15;;;7.90;;
75990;SDS011;64673;52.276;10.560;2022-12-18T11:54:52;18.48;;;8.45;;
75990;SDS011;64673;52.276;10.560;2022-12-18T12:16:43;18.48;;;7.25;;
75990;SDS011;64673;52.276;10.560;2022-12-18T12:22:13;16.67;;;7.00;;
75990;SDS011;64673;52.276;10.560;2022-12-18T12:27:30;16.10;;;6.70;;
75990;SDS011;64673;52.276;10.560;2022-12-18T12:33:05;13.82;;;5.40;;
75990;SDS011;64673;52.276;10.560;2022-12-18T12:38:33;11.10;;;5.57;;
75990;SDS011;64673;52.276;10.560;2022-12-18T12:41:06;18.48;;;7.25;;
75990;SDS011;64673;52.276;10.560;2022-12-18T12:43:55;15.05;;;5.85;;
75990;SDS011;64673;52.276;10.560;2022-12-18T12:46:23;13.55;;;6.05;;
75990;SDS011;64673;52.276;10.560;2022-12-18T12:48:50;16.77;;;6.80;;
75990;SDS011;64673;52.276;10.560;2022-12-18T12:51:21;13.52;;;6.05;;
75990;SDS011;64673;52.276;10.560;2022-12-18T12:53:49;14.70;;;7.20;;
75990;SDS011;64673;52.276;10.560;2022-12-18T12:56:17;13.85;;;7.00;;
75990;SDS011;64673;52.276;10.560;2022-12-18T12:59:31;12.27;;;6.15;;
75990;SDS011;64673;52.276;10.560;2022-12-18T13:07:20;15.25;;;6.18;;
75990;SDS011;64673;52.276;10.560;2022-12-18T13:12:50;17.40;;;6.65;;
75990;SDS011;64673;52.276;10.560;2022-12-18T13:18:04;18.48;;;8.10;;
75990;SDS011;64673;52.276;10.560;2022-12-18T13:25:47;18.60;;;6.70;;
75990;SDS011;64673;52.276;10.560;2022-12-18T13:28:14;18.63;;;7.45;;
75990;SDS011;64673;52.276;10.560;2022-12-18T13:38:22;16.57;;;7.10;;
75990;SDS011;64673;52.276;10.560;2022-12-18T13:48:52;9.48;;;4.82;;
75990;SDS011;64673;52.276;10.560;2022-12-18T13:51:17;13.35;;;5.20;;
75990;SDS011;64673;52.276;10.560;2022-12-18T13:56:23;12.52;;;5.75;;
75990;SDS011;64673;52.276;10.560;2022-12-18T14:01:30;13.63;;;5.70;;
75990;SDS011;64673;52.276;10.560;2022-12-18T14:04:08;13.53;;;5.63;;
75990;SDS011;64673;52.276;10.560;2022-12-18T14:06:50;13.32;;;6.32;;
75990;SDS011;64673;52.276;10.560;2022-12-18T14:09:25;15.23;;;7.40;;
75990;SDS011;64673;52.276;10.560;2022-12-18T14:11:53;13.05;;;6.35;;
75990;SDS011;64673;52.276;10.560;2022-12-18T14:14:44;15.95;;;7.70;;
75990;SDS011;64673;52.276;10.560;2022-12-18T14:17:12;17.65;;;7.90;;
75990;SDS011;64673;52.276;10.560;2022-12-18T14:19:43;17.50;;;7.85;;
75990;SDS011;64673;52.276;10.560;2022-12-18T14:22:17;16.33;;;7.80;;
75990;SDS011;64673;52.276;10.560;2022-12-18T14:24:45;20.17;;;8.43;;
75990;SDS011;64673;52.276;10.560;2022-12-18T14:27:13;17.88;;;8.00;;
75990;SDS011;64673;52.276;10.560;2022-12-18T14:29:46;18.65;;;8.20;;
75990;SDS011;64673;52.276;10.560;2022-12-18T14:34:45;16.98;;;8.18;;
75990;SDS011;64673;52.276;10.560;2022-12-18T14:37:22;15.73;;;7.80;;
75990;SDS011;64673;52.276;10.560;2022-12-18T14:39:58;17.02;;;7.57;;
75990;SDS011;64673;52.276;10.560;2022-12-18T14:42:26;17.25;;;7.80;;
75990;SDS011;64673;52.276;10.560;2022-12-18T14:48:07;14.32;;;6.97;;
75990;SDS011;64673;52.276;10.560;2022-12-18T14:50:44;17.50;;;7.82;;
75990;SDS011;64673;52.276;10.560;2022-12-18T14:53:20;17.05;;;8.45;;
75990;SDS011;64673;52.276;10.560;2022-12-18T14:55:48;14.95;;;7.13;;
75990;SDS011;64673;52.276;10.560;2022-12-18T14:58:15;16.67;;;8.38;;
75990;SDS011;64673;52.276;10.560;2022-12-18T15:00:42;18.88;;;7.50;;
75990;SDS011;64673;52.276;10.560;2022-12-18T15:03:08;15.73;;;7.13;;
75990;SDS011;64673;52.276;10.560;2022-12-18T15:05:34;17.38;;;7.45;;
75990;SDS011;64673;52.276;10.560;2022-12-18T15:08:00;18.52;;;7.57;;
75990;SDS011;64673;52.276;10.560;2022-12-18T15:20:51;13.35;;;5.32;;
75990;SDS011;64673;52.276;10.560;2022-12-18T15:25:57;15.90;;;6.97;;
75990;SDS011;64673;52.276;10.560;2022-12-18T15:33:41;13.30;;;6.20;;
75990;SDS011;64673;52.276;10.560;2022-12-18T15:36:11;13.98;;;6.68;;
75990;SDS011;64673;52.276;10.560;2022-12-18T15:38:38;11.82;;;5.90;;
75990;SDS011;64673;52.276;10.560;2022-12-18T15:41:14;14.32;;;5.85;;
75990;SDS011;64673;52.276;10.560;2022-12-18T15:43:41;13.98;;;5.75;;
75990;SDS011;64673;52.276;10.560;2022-12-18T15:46:14;10.93;;;5.40;;
75990;SDS011;64673;52.276;10.560;2022-12-18T15:48:55;19.30;;;8.80;;
75990;SDS011;64673;52.276;10.560;2022-12-18T15:51:31;16.88;;;8.23;;
75990;SDS011;64673;52.276;10.560;2022-12-18T15:54:00;15.05;;;7.55;;
75990;SDS011;64673;52.276;10.560;2022-12-18T15:56:28;14.57;;;8.95;;
75990;SDS011;64673;52.276;10.560;2022-12-18T15:59:16;15.45;;;8.18;;
75990;SDS011;64673;52.276;10.560;2022-12-18T16:01:45;15.20;;;7.85;;
75990;SDS011;64673;52.276;10.560;2022-12-18T16:04:12;14.50;;;6.68;;
75990;SDS011;64673;52.276;10.560;2022-12-18T16:06:38;14.30;;;6.82;;
75990;SDS011;64673;52.276;10.560;2022-12-18T16:09:04;11.50;;;5.15;;
75990;SDS011;64673;52.276;10.560;2022-12-18T16:11:30;11.23;;;5.70;;
75990;SDS011;64673;52.276;10.560;2022-12-18T16:16:42;10.98;;;5.57;;
75990;SDS011;64673;52.276;10.560;2022-12-18T16:19:07;10.98;;;5.28;;
75990;SDS011;64673;52.276;10.560;2022-12-18T16:21:33;11.38;;;5.82;;
75990;SDS011;64673;52.276;10.560;2022-12-18T16:23:58;16.58;;;6.32;;
75990;SDS011;64673;52.276;10.560;2022-12-18T16:26:23;14.95;;;6.75;;
75990;SDS011;64673;52.276;10.560;2022-12-18T16:28:48;13.88;;;6.97;;
75990;SDS011;64673;52.276;10.560;2022-12-18T16:31:14;14.15;;;6.32;;
75990;SDS011;64673;52.276;10.560;2022-12-18T16:33:39;15.73;;;6.18;;
75990;SDS011;64673;52.276;10.560;2022-12-18T16:36:05;12.00;;;5.32;;
75990;SDS011;64673;52.276;10.560;2022-12-18T16:38:30;15.55;;;5.78;;
75990;SDS011;64673;52.276;10.560;2022-12-18T16:40:55;18.10;;;7.03;;
75990;SDS011;64673;52.276;10.560;2022-12-18T16:43:39;15.35;;;6.00;;
75990;SDS011;64673;52.276;10.560;2022-12-18T16:46:04;14.48;;;6.15;;
75990;SDS011;64673;52.276;10.560;2022-12-18T16:48:30;12.10;;;6.50;;
75990;SDS011;64673;52.276;10.560;2022-12-18T16:51:00;11.98;;;5.78;;
75990;SDS011;64673;52.276;10.560;2022-12-18T16:53:26;17.58;;;7.38;;
75990;SDS011;64673;52.276;10.560;2022-12-18T16:55:54;12.98;;;7.45;;
75990;SDS011;64673;52.276;10.560;2022-12-18T16:58:20;12.52;;;6.07;;
75990;SDS011;64673;52.276;10.560;2022-12-18T17:00:46;14.73;;;6.90;;